sensor_id;sensor_type;location;lat;lon;timestamp;pressure;altitude;pressure_sealevel;temperature;humidity
30081;BME280;16902;50.816;12.828;2023-01-26T00:00:02;98367.94;;;0.23;100.00
30081;BME280;16902;50.816;12.828;2023-01-26T00:05:05;98358.81;;;0.19;100.00
30081;BME280;16902;50.816;12.828;2023-01-26T00:10:07;98346.31;;;0.27;100.00
30081;BME280;16902;50.816;12.828;2023-01-26T00:15:10;98340.38;;;0.27;100.00
30081;BME280;16902;50.816;12.828;2023-01-26T00:20:12;98334.25;;;0.29;100.00
30081;BME280;16902;50.816;12.828;2023-01-26T00:25:14;98335.25;;;0.27;100.00
30081;BME280;16902;50.816;12.828;2023-01-26T00:30:16;98328.06;;;0.19;100.00
30081;BME280;16902;50.816;12.828;2023-01-26T00:35:18;98331.25;;;0.10;100.00
30081;BME280;16902;50.816;12.828;2023-01-26T00:40:20;98324.13;;;-0.12;100.00
30081;BME280;16902;50.816;12.828;2023-01-26T00:45:22;98329.03;;;-0.22;100.00
30081;BME280;16902;50.816;12.828;2023-01-26T00:50:24;98323.63;;;-0.17;100.00
30081;BME280;16902;50.816;12.828;2023-01-26T00:55:26;98324.63;;;-0.20;100.00
30081;BME280;16902;50.816;12.828;2023-01-26T01:00:36;98323.28;;;-0.26;100.00
30081;BME280;16902;50.816;12.828;2023-01-26T01:05:38;98325.88;;;-0.13;100.00
30081;BME280;16902;50.816;12.828;2023-01-26T01:10:40;98322.63;;;-0.02;100.00
30081;BME280;16902;50.816;12.828;2023-01-26T01:15:42;98327.69;;;-0.15;100.00
30081;BME280;16902;50.816;12.828;2023-01-26T01:20:44;98321.63;;;0.01;100.00
30081;BME280;16902;50.816;12.828;2023-01-26T01:25:46;98318.25;;;0.00;100.00
30081;BME280;16902;50.816;12.828;2023-01-26T01:30:48;98323.94;;;-0.09;100.00
30081;BME280;16902;50.816;12.828;2023-01-26T01:36:01;98318.63;;;-0.06;100.00
30081;BME280;16902;50.816;12.828;2023-01-26T01:41:04;98319.31;;;-0.17;100.00
30081;BME280;16902;50.816;12.828;2023-01-26T01:51:38;98306.00;;;-0.22;100.00
30081;BME280;16902;50.816;12.828;2023-01-26T01:56:47;98302.22;;;-0.16;100.00
30081;BME280;16902;50.816;12.828;2023-01-26T02:01:52;98294.78;;;-0.07;100.00
30081;BME280;16902;50.816;12.828;2023-01-26T02:06:56;98274.19;;;-0.18;100.00
30081;BME280;16902;50.816;12.828;2023-01-26T02:12:01;98279.72;;;-0.24;100.00
30081;BME280;16902;50.816;12.828;2023-01-26T02:17:04;98278.94;;;-0.39;100.00
30081;BME280;16902;50.816;12.828;2023-01-26T02:22:10;98269.31;;;-0.48;100.00
30081;BME280;16902;50.816;12.828;2023-01-26T02:27:16;98259.38;;;-0.40;100.00
30081;BME280;16902;50.816;12.828;2023-01-26T02:32:17;98256.59;;;-0.49;100.00
30081;BME280;16902;50.816;12.828;2023-01-26T02:37:19;98232.34;;;-0.57;100.00
30081;BME280;16902;50.816;12.828;2023-01-26T02:42:21;98225.91;;;-0.49;100.00
30081;BME280;16902;50.816;12.828;2023-01-26T02:47:41;98214.28;;;-0.41;100.00
30081;BME280;16902;50.816;12.828;2023-01-26T02:52:46;98212.22;;;-0.36;100.00
30081;BME280;16902;50.816;12.828;2023-01-26T02:57:55;98213.88;;;-0.35;100.00
30081;BME280;16902;50.816;12.828;2023-01-26T03:02:59;98208.22;;;-0.40;100.00
30081;BME280;16902;50.816;12.828;2023-01-26T03:08:04;98198.81;;;-0.39;100.00
30081;BME280;16902;50.816;12.828;2023-01-26T03:13:10;98197.00;;;-0.37;100.00
30081;BME280;16902;50.816;12.828;2023-01-26T03:18:14;98197.50;;;-0.32;100.00
30081;BME280;16902;50.816;12.828;2023-01-26T03:23:35;98199.75;;;-0.40;100.00
30081;BME280;16902;50.816;12.828;2023-01-26T03:28:57;98196.25;;;-0.39;100.00
30081;BME280;16902;50.816;12.828;2023-01-26T03:33:59;98192.59;;;-0.35;100.00
30081;BME280;16902;50.816;12.828;2023-01-26T03:39:03;98186.53;;;-0.47;100.00
30081;BME280;16902;50.816;12.828;2023-01-26T03:44:05;98191.13;;;-0.39;100.00
30081;BME280;16902;50.816;12.828;2023-01-26T03:49:27;98186.13;;;-0.41;100.00
30081;BME280;16902;50.816;12.828;2023-01-26T03:54:48;98183.69;;;-0.42;100.00
30081;BME280;16902;50.816;12.828;2023-01-26T04:00:09;98180.09;;;-0.40;100.00
30081;BME280;16902;50.816;12.828;2023-01-26T04:05:12;98182.88;;;-0.43;100.00
30081;BME280;16902;50.816;12.828;2023-01-26T04:10:38;98178.25;;;-0.50;100.00
30081;BME280;16902;50.816;12.828;2023-01-26T04:15:41;98175.38;;;-0.46;100.00
30081;BME280;16902;50.816;12.828;2023-01-26T04:21:02;98174.47;;;-0.58;100.00
30081;BME280;16902;50.816;12.828;2023-01-26T04:26:29;98171.78;;;-0.56;100.00
30081;BME280;16902;50.816;12.828;2023-01-26T04:31:37;98176.94;;;-0.43;100.00
30081;BME280;16902;50.816;12.828;2023-01-26T04:36:41;98163.22;;;-0.42;100.00
30081;BME280;16902;50.816;12.828;2023-01-26T04:41:43;98165.78;;;-0.42;100.00
30081;BME280;16902;50.816;12.828;2023-01-26T04:46:48;98160.75;;;-0.44;100.00
30081;BME280;16902;50.816;12.828;2023-01-26T04:51:51;98167.38;;;-0.54;100.00
30081;BME280;16902;50.816;12.828;2023-01-26T04:56:53;98162.38;;;-0.56;100.00
30081;BME280;16902;50.816;12.828;2023-01-26T05:01:56;98156.97;;;-0.51;100.00
30081;BME280;16902;50.816;12.828;2023-01-26T05:06:58;98159.81;;;-0.56;100.00
30081;BME280;16902;50.816;12.828;2023-01-26T05:12:00;98162.78;;;-0.49;100.00
30081;BME280;16902;50.816;12.828;2023-01-26T05:17:45;98166.50;;;-0.53;100.00
30081;BME280;16902;50.816;12.828;2023-01-26T05:23:06;98173.44;;;-0.55;100.00
30081;BME280;16902;50.816;12.828;2023-01-26T05:28:08;98178.66;;;-0.57;100.00
30081;BME280;16902;50.816;12.828;2023-01-26T05:33:10;98167.97;;;-0.63;100.00
30081;BME280;16902;50.816;12.828;2023-01-26T05:38:13;98164.19;;;-0.70;100.00
30081;BME280;16902;50.816;12.828;2023-01-26T05:43:15;98170.84;;;-0.68;100.00
30081;BME280;16902;50.816;12.828;2023-01-26T05:48:24;98171.06;;;-0.71;100.00
30081;BME280;16902;50.816;12.828;2023-01-26T05:53:26;98170.25;;;-0.71;100.00
30081;BME280;16902;50.816;12.828;2023-01-26T05:58:28;98165.19;;;-0.73;100.00
30081;BME280;16902;50.816;12.828;2023-01-26T06:03:30;98179.19;;;-0.79;100.00
30081;BME280;16902;50.816;12.828;2023-01-26T06:08:32;98170.31;;;-0.73;100.00
30081;BME280;16902;50.816;12.828;2023-01-26T06:13:52;98183.91;;;-0.85;100.00
30081;BME280;16902;50.816;12.828;2023-01-26T06:18:57;98182.56;;;-0.91;100.00
30081;BME280;16902;50.816;12.828;2023-01-26T06:23:59;98176.94;;;-0.83;100.00
30081;BME280;16902;50.816;12.828;2023-01-26T06:29:02;98173.56;;;-0.84;100.00
30081;BME280;16902;50.816;12.828;2023-01-26T06:34:07;98170.53;;;-0.76;100.00
30081;BME280;16902;50.816;12.828;2023-01-26T06:39:12;98174.91;;;-0.78;100.00
30081;BME280;16902;50.816;12.828;2023-01-26T06:44:15;98170.59;;;-0.78;100.00
30081;BME280;16902;50.816;12.828;2023-01-26T06:49:17;98169.09;;;-0.80;100.00
30081;BME280;16902;50.816;12.828;2023-01-26T06:54:19;98173.84;;;-0.88;100.00
30081;BME280;16902;50.816;12.828;2023-01-26T06:59:53;98171.00;;;-0.84;100.00
30081;BME280;16902;50.816;12.828;2023-01-26T07:05:06;98181.22;;;-0.84;100.00
30081;BME280;16902;50.816;12.828;2023-01-26T07:10:10;98192.84;;;-0.92;100.00
30081;BME280;16902;50.816;12.828;2023-01-26T07:15:12;98187.38;;;-0.86;100.00
30081;BME280;16902;50.816;12.828;2023-01-26T07:20:14;98183.16;;;-0.87;100.00
30081;BME280;16902;50.816;12.828;2023-01-26T07:25:17;98179.50;;;-0.83;100.00
30081;BME280;16902;50.816;12.828;2023-01-26T07:30:19;98184.94;;;-0.75;100.00
30081;BME280;16902;50.816;12.828;2023-01-26T07:35:21;98179.44;;;-0.69;100.00
30081;BME280;16902;50.816;12.828;2023-01-26T07:40:23;98172.50;;;-0.67;100.00
30081;BME280;16902;50.816;12.828;2023-01-26T07:45:26;98176.88;;;-0.69;100.00
30081;BME280;16902;50.816;12.828;2023-01-26T07:50:28;98178.09;;;-0.74;100.00
30081;BME280;16902;50.816;12.828;2023-01-26T07:55:30;98174.63;;;-0.73;100.00
30081;BME280;16902;50.816;12.828;2023-01-26T08:00:32;98179.03;;;-0.75;100.00
30081;BME280;16902;50.816;12.828;2023-01-26T08:05:34;98175.44;;;-0.73;100.00
30081;BME280;16902;50.816;12.828;2023-01-26T08:10:37;98182.03;;;-0.56;100.00
30081;BME280;16902;50.816;12.828;2023-01-26T08:15:39;98181.63;;;-0.50;100.00
30081;BME280;16902;50.816;12.828;2023-01-26T08:20:51;98180.19;;;-0.54;100.00
30081;BME280;16902;50.816;12.828;2023-01-26T08:25:53;98178.06;;;-0.47;100.00
30081;BME280;16902;50.816;12.828;2023-01-26T08:30:56;98170.47;;;-0.49;100.00
30081;BME280;16902;50.816;12.828;2023-01-26T08:36:05;98171.38;;;-0.50;100.00
30081;BME280;16902;50.816;12.828;2023-01-26T08:41:07;98173.47;;;-0.42;100.00
30081;BME280;16902;50.816;12.828;2023-01-26T08:46:09;98170.38;;;-0.35;100.00
30081;BME280;16902;50.816;12.828;2023-01-26T08:51:11;98164.44;;;-0.35;100.00
30081;BME280;16902;50.816;12.828;2023-01-26T08:56:13;98158.22;;;-0.18;100.00
30081;BME280;16902;50.816;12.828;2023-01-26T09:01:16;98163.94;;;-0.15;100.00
30081;BME280;16902;50.816;12.828;2023-01-26T09:06:18;98170.38;;;0.04;100.00
30081;BME280;16902;50.816;12.828;2023-01-26T09:11:20;98176.00;;;0.34;100.00
30081;BME280;16902;50.816;12.828;2023-01-26T09:16:23;98179.97;;;0.38;100.00
30081;BME280;16902;50.816;12.828;2023-01-26T09:21:25;98185.69;;;0.42;100.00
30081;BME280;16902;50.816;12.828;2023-01-26T09:26:28;98188.00;;;0.08;100.00
30081;BME280;16902;50.816;12.828;2023-01-26T09:31:30;98175.88;;;0.23;100.00
30081;BME280;16902;50.816;12.828;2023-01-26T09:36:32;98184.75;;;0.43;100.00
30081;BME280;16902;50.816;12.828;2023-01-26T09:47:22;98178.81;;;0.55;100.00
30081;BME280;16902;50.816;12.828;2023-01-26T09:52:39;98180.94;;;0.61;100.00
30081;BME280;16902;50.816;12.828;2023-01-26T09:57:50;98188.84;;;0.58;100.00
30081;BME280;16902;50.816;12.828;2023-01-26T10:08:28;98176.63;;;0.25;100.00
30081;BME280;16902;50.816;12.828;2023-01-26T10:13:29;98186.31;;;0.45;100.00
30081;BME280;16902;50.816;12.828;2023-01-26T10:18:39;98185.31;;;0.35;100.00
30081;BME280;16902;50.816;12.828;2023-01-26T10:23:47;98173.56;;;0.57;100.00
30081;BME280;16902;50.816;12.828;2023-01-26T10:28:50;98170.63;;;0.50;100.00
30081;BME280;16902;50.816;12.828;2023-01-26T10:33:58;98171.66;;;0.47;100.00
30081;BME280;16902;50.816;12.828;2023-01-26T10:39:04;98163.63;;;0.65;100.00
30081;BME280;16902;50.816;12.828;2023-01-26T10:49:15;98162.72;;;-0.09;100.00
30081;BME280;16902;50.816;12.828;2023-01-26T10:54:26;98159.03;;;-0.18;100.00
30081;BME280;16902;50.816;12.828;2023-01-26T10:59:51;98162.09;;;-0.13;100.00
30081;BME280;16902;50.816;12.828;2023-01-26T11:15:26;98168.53;;;0.18;100.00
30081;BME280;16902;50.816;12.828;2023-01-26T11:20:58;98158.59;;;0.27;100.00
30081;BME280;16902;50.816;12.828;2023-01-26T11:26:29;98153.00;;;0.45;100.00
30081;BME280;16902;50.816;12.828;2023-01-26T11:31:48;98155.19;;;0.39;100.00
30081;BME280;16902;50.816;12.828;2023-01-26T11:59:02;98118.69;;;0.11;100.00
30081;BME280;16902;50.816;12.828;2023-01-26T12:04:17;98119.47;;;0.24;100.00
30081;BME280;16902;50.816;12.828;2023-01-26T12:14:42;98102.72;;;0.44;100.00
30081;BME280;16902;50.816;12.828;2023-01-26T12:20:00;98088.78;;;0.12;100.00
30081;BME280;16902;50.816;12.828;2023-01-26T12:30:50;98072.19;;;0.05;100.00
30081;BME280;16902;50.816;12.828;2023-01-26T12:36:21;98068.56;;;-0.17;100.00
30081;BME280;16902;50.816;12.828;2023-01-26T12:41:38;98061.50;;;-0.13;100.00
30081;BME280;16902;50.816;12.828;2023-01-26T12:47:00;98053.59;;;-0.10;100.00
30081;BME280;16902;50.816;12.828;2023-01-26T12:52:17;98049.94;;;-0.32;100.00
30081;BME280;16902;50.816;12.828;2023-01-26T12:57:28;98054.28;;;-0.58;100.00
30081;BME280;16902;50.816;12.828;2023-01-26T13:02:32;98043.22;;;-0.45;100.00
30081;BME280;16902;50.816;12.828;2023-01-26T13:07:38;98057.63;;;-0.44;100.00
30081;BME280;16902;50.816;12.828;2023-01-26T13:18:01;98055.56;;;-0.27;100.00
30081;BME280;16902;50.816;12.828;2023-01-26T13:23:35;98053.53;;;-0.34;100.00
30081;BME280;16902;50.816;12.828;2023-01-26T13:28:37;98056.31;;;-0.37;100.00
30081;BME280;16902;50.816;12.828;2023-01-26T13:33:40;98054.88;;;-0.29;100.00
30081;BME280;16902;50.816;12.828;2023-01-26T13:39:00;98051.69;;;-0.32;100.00
30081;BME280;16902;50.816;12.828;2023-01-26T13:44:09;98061.09;;;-0.20;100.00
30081;BME280;16902;50.816;12.828;2023-01-26T13:49:36;98067.34;;;-0.37;100.00
30081;BME280;16902;50.816;12.828;2023-01-26T13:54:40;98060.19;;;-0.19;100.00
30081;BME280;16902;50.816;12.828;2023-01-26T13:59:57;98049.72;;;-0.16;100.00
30081;BME280;16902;50.816;12.828;2023-01-26T14:05:20;98050.03;;;-0.20;100.00
30081;BME280;16902;50.816;12.828;2023-01-26T14:10:22;98049.94;;;-0.19;100.00
30081;BME280;16902;50.816;12.828;2023-01-26T14:15:28;98047.50;;;-0.33;100.00
30081;BME280;16902;50.816;12.828;2023-01-26T14:20:36;98047.72;;;-0.36;100.00
30081;BME280;16902;50.816;12.828;2023-01-26T14:26:03;98044.97;;;-0.33;100.00
30081;BME280;16902;50.816;12.828;2023-01-26T14:31:14;98048.13;;;-0.42;100.00
30081;BME280;16902;50.816;12.828;2023-01-26T14:36:19;98047.63;;;-0.47;100.00
30081;BME280;16902;50.816;12.828;2023-01-26T14:41:25;98045.88;;;-0.47;100.00
30081;BME280;16902;50.816;12.828;2023-01-26T14:51:55;98063.75;;;-0.98;100.00
30081;BME280;16902;50.816;12.828;2023-01-26T14:56:59;98067.84;;;-0.95;100.00
30081;BME280;16902;50.816;12.828;2023-01-26T15:07:32;98073.97;;;-0.98;100.00
30081;BME280;16902;50.816;12.828;2023-01-26T15:12:37;98066.91;;;-1.07;100.00
30081;BME280;16902;50.816;12.828;2023-01-26T15:17:41;98064.25;;;-1.06;100.00
30081;BME280;16902;50.816;12.828;2023-01-26T15:22:50;98071.88;;;-1.18;100.00
30081;BME280;16902;50.816;12.828;2023-01-26T15:27:58;98069.88;;;-1.40;100.00
30081;BME280;16902;50.816;12.828;2023-01-26T15:33:00;98079.78;;;-1.48;100.00
30081;BME280;16902;50.816;12.828;2023-01-26T15:43:18;98072.63;;;-1.43;100.00
30081;BME280;16902;50.816;12.828;2023-01-26T15:48:22;98071.09;;;-1.46;100.00
30081;BME280;16902;50.816;12.828;2023-01-26T15:53:24;98061.09;;;-1.49;100.00
30081;BME280;16902;50.816;12.828;2023-01-26T15:58:26;98074.13;;;-1.53;100.00
30081;BME280;16902;50.816;12.828;2023-01-26T16:03:29;98084.25;;;-1.52;100.00
30081;BME280;16902;50.816;12.828;2023-01-26T16:08:31;98077.81;;;-1.72;100.00
30081;BME280;16902;50.816;12.828;2023-01-26T16:13:33;98083.66;;;-1.70;100.00
30081;BME280;16902;50.816;12.828;2023-01-26T16:18:34;98082.75;;;-1.69;100.00
30081;BME280;16902;50.816;12.828;2023-01-26T16:23:36;98083.00;;;-1.59;100.00
30081;BME280;16902;50.816;12.828;2023-01-26T16:28:38;98080.19;;;-1.69;100.00
30081;BME280;16902;50.816;12.828;2023-01-26T16:33:40;98081.91;;;-1.69;100.00
30081;BME280;16902;50.816;12.828;2023-01-26T16:38:42;98091.41;;;-1.71;100.00
30081;BME280;16902;50.816;12.828;2023-01-26T16:43:44;98096.63;;;-1.73;100.00
30081;BME280;16902;50.816;12.828;2023-01-26T16:48:46;98097.88;;;-1.80;100.00
30081;BME280;16902;50.816;12.828;2023-01-26T16:53:48;98089.03;;;-1.74;100.00
30081;BME280;16902;50.816;12.828;2023-01-26T16:58:50;98094.97;;;-1.74;100.00
30081;BME280;16902;50.816;12.828;2023-01-26T17:03:53;98088.88;;;-1.86;100.00
30081;BME280;16902;50.816;12.828;2023-01-26T17:08:55;98089.38;;;-1.93;100.00
30081;BME280;16902;50.816;12.828;2023-01-26T17:13:57;98092.63;;;-1.91;100.00
30081;BME280;16902;50.816;12.828;2023-01-26T17:18:59;98089.81;;;-2.01;100.00
30081;BME280;16902;50.816;12.828;2023-01-26T17:24:01;98090.72;;;-1.88;100.00
30081;BME280;16902;50.816;12.828;2023-01-26T17:29:03;98101.66;;;-2.00;100.00
30081;BME280;16902;50.816;12.828;2023-01-26T17:34:05;98100.00;;;-1.87;100.00
30081;BME280;16902;50.816;12.828;2023-01-26T17:39:09;98103.81;;;-1.94;100.00
30081;BME280;16902;50.816;12.828;2023-01-26T17:44:11;98107.84;;;-2.04;100.00
30081;BME280;16902;50.816;12.828;2023-01-26T17:49:14;98107.69;;;-2.01;100.00
30081;BME280;16902;50.816;12.828;2023-01-26T17:54:16;98104.84;;;-1.96;100.00
30081;BME280;16902;50.816;12.828;2023-01-26T17:59:18;98101.91;;;-1.90;100.00
30081;BME280;16902;50.816;12.828;2023-01-26T18:04:20;98103.47;;;-1.88;100.00
30081;BME280;16902;50.816;12.828;2023-01-26T18:09:22;98107.03;;;-2.04;100.00
30081;BME280;16902;50.816;12.828;2023-01-26T18:14:23;98107.84;;;-1.90;100.00
30081;BME280;16902;50.816;12.828;2023-01-26T18:19:25;98110.56;;;-1.78;100.00
30081;BME280;16902;50.816;12.828;2023-01-26T18:24:27;98120.41;;;-1.87;100.00
30081;BME280;16902;50.816;12.828;2023-01-26T18:29:29;98126.25;;;-1.85;100.00
30081;BME280;16902;50.816;12.828;2023-01-26T18:34:31;98128.06;;;-1.87;100.00
30081;BME280;16902;50.816;12.828;2023-01-26T18:39:33;98131.06;;;-1.80;100.00
30081;BME280;16902;50.816;12.828;2023-01-26T18:44:35;98127.06;;;-1.84;100.00
30081;BME280;16902;50.816;12.828;2023-01-26T18:49:36;98133.19;;;-1.87;100.00
30081;BME280;16902;50.816;12.828;2023-01-26T18:54:38;98127.16;;;-2.00;100.00
30081;BME280;16902;50.816;12.828;2023-01-26T18:59:40;98136.19;;;-1.94;100.00
30081;BME280;16902;50.816;12.828;2023-01-26T19:04:42;98134.66;;;-2.11;100.00
30081;BME280;16902;50.816;12.828;2023-01-26T19:09:44;98136.19;;;-2.09;100.00
30081;BME280;16902;50.816;12.828;2023-01-26T19:14:46;98131.81;;;-2.07;100.00
30081;BME280;16902;50.816;12.828;2023-01-26T19:19:48;98132.00;;;-1.95;100.00
30081;BME280;16902;50.816;12.828;2023-01-26T19:24:50;98130.38;;;-1.96;100.00
30081;BME280;16902;50.816;12.828;2023-01-26T19:29:51;98120.25;;;-1.98;100.00
30081;BME280;16902;50.816;12.828;2023-01-26T19:34:54;98117.13;;;-1.89;100.00
30081;BME280;16902;50.816;12.828;2023-01-26T19:39:56;98124.44;;;-1.83;100.00
30081;BME280;16902;50.816;12.828;2023-01-26T19:44:58;98111.94;;;-1.87;100.00
30081;BME280;16902;50.816;12.828;2023-01-26T19:50:00;98105.56;;;-1.94;100.00
30081;BME280;16902;50.816;12.828;2023-01-26T19:55:02;98111.16;;;-2.02;100.00
30081;BME280;16902;50.816;12.828;2023-01-26T20:00:04;98110.94;;;-1.99;100.00
30081;BME280;16902;50.816;12.828;2023-01-26T20:05:12;98123.63;;;-1.97;100.00
30081;BME280;16902;50.816;12.828;2023-01-26T20:10:15;98127.53;;;-1.92;100.00
30081;BME280;16902;50.816;12.828;2023-01-26T20:15:17;98120.25;;;-1.84;100.00
30081;BME280;16902;50.816;12.828;2023-01-26T20:20:19;98122.22;;;-1.74;100.00
30081;BME280;16902;50.816;12.828;2023-01-26T20:25:21;98126.34;;;-1.86;100.00
30081;BME280;16902;50.816;12.828;2023-01-26T20:30:23;98128.63;;;-1.82;100.00
30081;BME280;16902;50.816;12.828;2023-01-26T20:35:24;98124.34;;;-1.95;100.00
30081;BME280;16902;50.816;12.828;2023-01-26T20:40:26;98122.16;;;-2.01;100.00
30081;BME280;16902;50.816;12.828;2023-01-26T20:45:29;98111.22;;;-2.03;100.00
30081;BME280;16902;50.816;12.828;2023-01-26T20:50:33;98103.31;;;-2.13;100.00
30081;BME280;16902;50.816;12.828;2023-01-26T20:55:40;98107.31;;;-2.09;100.00
30081;BME280;16902;50.816;12.828;2023-01-26T21:00:42;98104.75;;;-2.09;100.00
30081;BME280;16902;50.816;12.828;2023-01-26T21:05:44;98113.59;;;-2.15;100.00
30081;BME280;16902;50.816;12.828;2023-01-26T21:10:46;98121.09;;;-2.12;100.00
30081;BME280;16902;50.816;12.828;2023-01-26T21:15:49;98119.34;;;-2.11;100.00
30081;BME280;16902;50.816;12.828;2023-01-26T21:21:01;98113.50;;;-1.99;100.00
30081;BME280;16902;50.816;12.828;2023-01-26T21:26:09;98110.78;;;-1.96;100.00
30081;BME280;16902;50.816;12.828;2023-01-26T21:31:13;98115.34;;;-2.01;100.00
30081;BME280;16902;50.816;12.828;2023-01-26T21:36:18;98103.31;;;-2.13;100.00
30081;BME280;16902;50.816;12.828;2023-01-26T21:41:22;98108.78;;;-2.05;100.00
30081;BME280;16902;50.816;12.828;2023-01-26T21:46:44;98098.41;;;-2.02;100.00
30081;BME280;16902;50.816;12.828;2023-01-26T21:51:46;98101.66;;;-2.14;100.00
30081;BME280;16902;50.816;12.828;2023-01-26T21:57:08;98094.22;;;-2.17;100.00
30081;BME280;16902;50.816;12.828;2023-01-26T22:02:29;98100.69;;;-2.26;100.00
30081;BME280;16902;50.816;12.828;2023-01-26T22:07:31;98102.84;;;-2.20;100.00
30081;BME280;16902;50.816;12.828;2023-01-26T22:12:33;98107.59;;;-2.14;100.00
30081;BME280;16902;50.816;12.828;2023-01-26T22:17:34;98108.34;;;-2.12;100.00
30081;BME280;16902;50.816;12.828;2023-01-26T22:22:36;98097.75;;;-2.05;100.00
30081;BME280;16902;50.816;12.828;2023-01-26T22:27:38;98098.75;;;-2.08;100.00
30081;BME280;16902;50.816;12.828;2023-01-26T22:32:42;98098.94;;;-2.11;100.00
30081;BME280;16902;50.816;12.828;2023-01-26T22:37:44;98098.03;;;-2.10;100.00
30081;BME280;16902;50.816;12.828;2023-01-26T22:42:46;98098.66;;;-2.07;100.00
30081;BME280;16902;50.816;12.828;2023-01-26T22:47:48;98092.19;;;-1.98;100.00
30081;BME280;16902;50.816;12.828;2023-01-26T22:52:50;98096.41;;;-2.11;100.00
30081;BME280;16902;50.816;12.828;2023-01-26T22:57:52;98108.22;;;-2.10;100.00
30081;BME280;16902;50.816;12.828;2023-01-26T23:02:54;98107.31;;;-2.09;100.00
30081;BME280;16902;50.816;12.828;2023-01-26T23:07:56;98103.03;;;-2.09;100.00
30081;BME280;16902;50.816;12.828;2023-01-26T23:12:58;98088.38;;;-2.05;100.00
30081;BME280;16902;50.816;12.828;2023-01-26T23:17:59;98086.31;;;-2.27;100.00
30081;BME280;16902;50.816;12.828;2023-01-26T23:23:01;98089.03;;;-2.30;100.00
30081;BME280;16902;50.816;12.828;2023-01-26T23:28:03;98091.28;;;-2.54;100.00
30081;BME280;16902;50.816;12.828;2023-01-26T23:33:05;98091.97;;;-2.66;100.00
30081;BME280;16902;50.816;12.828;2023-01-26T23:38:07;98097.94;;;-2.66;100.00
30081;BME280;16902;50.816;12.828;2023-01-26T23:43:09;98084.19;;;-2.63;100.00
30081;BME280;16902;50.816;12.828;2023-01-26T23:48:18;98093.66;;;-2.51;100.00
30081;BME280;16902;50.816;12.828;2023-01-26T23:53:20;98100.50;;;-2.51;100.00
30081;BME280;16902;50.816;12.828;2023-01-26T23:58:22;98105.03;;;-2.28;100.00
